sensor_id;sensor_type;location;lat;lon;timestamp;P1;durP1;ratioP1;P2;durP2;ratioP2
1402;SDS011;696;48.546;9.896;2022-10-28T00:02:11;5.20;;;3.28;;
1402;SDS011;696;48.546;9.896;2022-10-28T00:04:36;11.75;;;3.33;;
1402;SDS011;696;48.546;9.896;2022-10-28T00:07:02;10.82;;;4.00;;
1402;SDS011;696;48.546;9.896;2022-10-28T00:09:27;6.00;;;3.47;;
1402;SDS011;696;48.546;9.896;2022-10-28T00:11:53;5.07;;;3.25;;
1402;SDS011;696;48.546;9.896;2022-10-28T00:14:18;9.63;;;3.40;;
1402;SDS011;696;48.546;9.896;2022-10-28T00:16:43;7.38;;;3.55;;
1402;SDS011;696;48.546;9.896;2022-10-28T00:19:10;6.57;;;3.60;;
1402;SDS011;696;48.546;9.896;2022-10-28T00:21:36;14.88;;;4.55;;
1402;SDS011;696;48.546;9.896;2022-10-28T00:24:03;6.38;;;3.38;;
1402;SDS011;696;48.546;9.896;2022-10-28T00:26:29;18.65;;;3.88;;
1402;SDS011;696;48.546;9.896;2022-10-28T00:28:59;4.90;;;3.50;;
1402;SDS011;696;48.546;9.896;2022-10-28T00:31:27;9.75;;;3.70;;
1402;SDS011;696;48.546;9.896;2022-10-28T00:33:53;6.97;;;3.63;;
1402;SDS011;696;48.546;9.896;2022-10-28T00:36:20;16.95;;;3.13;;
1402;SDS011;696;48.546;9.896;2022-10-28T00:38:47;7.85;;;3.58;;
1402;SDS011;696;48.546;9.896;2022-10-28T00:41:16;8.95;;;3.78;;
1402;SDS011;696;48.546;9.896;2022-10-28T00:43:45;4.28;;;2.97;;
1402;SDS011;696;48.546;9.896;2022-10-28T00:48:50;5.60;;;3.22;;
1402;SDS011;696;48.546;9.896;2022-10-28T00:51:18;16.75;;;3.75;;
1402;SDS011;696;48.546;9.896;2022-10-28T00:53:45;7.55;;;2.85;;
1402;SDS011;696;48.546;9.896;2022-10-28T00:56:12;4.55;;;3.08;;
1402;SDS011;696;48.546;9.896;2022-10-28T00:58:38;8.48;;;4.03;;
1402;SDS011;696;48.546;9.896;2022-10-28T01:01:03;7.68;;;3.20;;
1402;SDS011;696;48.546;9.896;2022-10-28T01:03:29;7.63;;;3.33;;
1402;SDS011;696;48.546;9.896;2022-10-28T01:05:54;6.05;;;3.47;;
1402;SDS011;696;48.546;9.896;2022-10-28T01:08:20;4.18;;;3.13;;
1402;SDS011;696;48.546;9.896;2022-10-28T01:21:05;8.90;;;3.65;;
1402;SDS011;696;48.546;9.896;2022-10-28T01:24:05;4.15;;;2.85;;
1402;SDS011;696;48.546;9.896;2022-10-28T01:32:02;5.28;;;2.97;;
1402;SDS011;696;48.546;9.896;2022-10-28T01:34:49;5.50;;;3.20;;
1402;SDS011;696;48.546;9.896;2022-10-28T01:37:23;7.32;;;3.17;;
1402;SDS011;696;48.546;9.896;2022-10-28T01:39:55;7.93;;;3.53;;
1402;SDS011;696;48.546;9.896;2022-10-28T01:53:06;5.45;;;3.15;;
1402;SDS011;696;48.546;9.896;2022-10-28T01:55:37;8.52;;;4.10;;
1402;SDS011;696;48.546;9.896;2022-10-28T01:58:03;11.88;;;4.22;;
1402;SDS011;696;48.546;9.896;2022-10-28T02:00:31;18.48;;;3.65;;
1402;SDS011;696;48.546;9.896;2022-10-28T02:02:57;11.10;;;3.65;;
1402;SDS011;696;48.546;9.896;2022-10-28T02:13:20;4.63;;;3.05;;
1402;SDS011;696;48.546;9.896;2022-10-28T02:18:39;4.40;;;3.65;;
1402;SDS011;696;48.546;9.896;2022-10-28T02:25:03;5.55;;;3.10;;
1402;SDS011;696;48.546;9.896;2022-10-28T02:27:07;5.43;;;3.70;;
1402;SDS011;696;48.546;9.896;2022-10-28T02:29:57;10.55;;;4.10;;
1402;SDS011;696;48.546;9.896;2022-10-28T02:32:31;6.57;;;3.80;;
1402;SDS011;696;48.546;9.896;2022-10-28T02:34:59;5.85;;;3.20;;
1402;SDS011;696;48.546;9.896;2022-10-28T02:37:27;4.95;;;3.08;;
1402;SDS011;696;48.546;9.896;2022-10-28T02:39:55;5.18;;;2.90;;
1402;SDS011;696;48.546;9.896;2022-10-28T02:42:26;8.90;;;3.65;;
1402;SDS011;696;48.546;9.896;2022-10-28T02:44:55;4.20;;;3.42;;
1402;SDS011;696;48.546;9.896;2022-10-28T02:47:25;10.25;;;3.95;;
1402;SDS011;696;48.546;9.896;2022-10-28T02:49:55;5.22;;;3.60;;
1402;SDS011;696;48.546;9.896;2022-10-28T02:52:23;4.72;;;3.20;;
1402;SDS011;696;48.546;9.896;2022-10-28T02:54:52;5.90;;;3.47;;
1402;SDS011;696;48.546;9.896;2022-10-28T02:57:19;5.90;;;3.42;;
1402;SDS011;696;48.546;9.896;2022-10-28T02:59:53;11.93;;;3.45;;
1402;SDS011;696;48.546;9.896;2022-10-28T03:02:20;16.20;;;3.97;;
1402;SDS011;696;48.546;9.896;2022-10-28T03:04:46;11.32;;;2.80;;
1402;SDS011;696;48.546;9.896;2022-10-28T03:07:11;18.50;;;3.78;;
1402;SDS011;696;48.546;9.896;2022-10-28T03:09:37;3.92;;;3.15;;
1402;SDS011;696;48.546;9.896;2022-10-28T03:12:02;5.63;;;3.28;;
1402;SDS011;696;48.546;9.896;2022-10-28T03:14:28;9.90;;;3.50;;
1402;SDS011;696;48.546;9.896;2022-10-28T03:16:53;5.90;;;3.45;;
1402;SDS011;696;48.546;9.896;2022-10-28T03:19:18;6.75;;;3.28;;
1402;SDS011;696;48.546;9.896;2022-10-28T03:21:44;7.50;;;3.65;;
1402;SDS011;696;48.546;9.896;2022-10-28T03:24:09;3.63;;;3.05;;
1402;SDS011;696;48.546;9.896;2022-10-28T03:26:34;8.02;;;3.85;;
1402;SDS011;696;48.546;9.896;2022-10-28T03:29:00;5.72;;;3.45;;
1402;SDS011;696;48.546;9.896;2022-10-28T03:31:25;9.25;;;4.00;;
1402;SDS011;696;48.546;9.896;2022-10-28T03:33:50;5.78;;;3.67;;
1402;SDS011;696;48.546;9.896;2022-10-28T03:36:16;4.40;;;3.40;;
1402;SDS011;696;48.546;9.896;2022-10-28T03:38:41;5.93;;;3.83;;
1402;SDS011;696;48.546;9.896;2022-10-28T03:41:06;8.00;;;3.60;;
1402;SDS011;696;48.546;9.896;2022-10-28T03:43:31;14.85;;;3.90;;
1402;SDS011;696;48.546;9.896;2022-10-28T03:45:57;22.95;;;3.83;;
1402;SDS011;696;48.546;9.896;2022-10-28T03:48:22;6.28;;;3.90;;
1402;SDS011;696;48.546;9.896;2022-10-28T03:50:51;9.18;;;4.40;;
1402;SDS011;696;48.546;9.896;2022-10-28T03:53:17;4.78;;;3.70;;
1402;SDS011;696;48.546;9.896;2022-10-28T03:55:42;6.97;;;4.90;;
1402;SDS011;696;48.546;9.896;2022-10-28T03:58:07;13.10;;;4.47;;
1402;SDS011;696;48.546;9.896;2022-10-28T04:00:32;9.73;;;3.97;;
1402;SDS011;696;48.546;9.896;2022-10-28T04:02:58;12.07;;;3.67;;
1402;SDS011;696;48.546;9.896;2022-10-28T04:05:23;7.78;;;3.15;;
1402;SDS011;696;48.546;9.896;2022-10-28T04:07:49;7.57;;;3.80;;
1402;SDS011;696;48.546;9.896;2022-10-28T04:10:14;12.20;;;3.75;;
1402;SDS011;696;48.546;9.896;2022-10-28T04:12:40;9.60;;;4.82;;
1402;SDS011;696;48.546;9.896;2022-10-28T04:15:05;6.68;;;3.90;;
1402;SDS011;696;48.546;9.896;2022-10-28T04:17:32;6.47;;;3.45;;
1402;SDS011;696;48.546;9.896;2022-10-28T04:19:58;6.30;;;3.15;;
1402;SDS011;696;48.546;9.896;2022-10-28T04:22:24;6.32;;;3.63;;
1402;SDS011;696;48.546;9.896;2022-10-28T04:24:49;7.10;;;3.70;;
1402;SDS011;696;48.546;9.896;2022-10-28T04:27:14;3.83;;;3.17;;
1402;SDS011;696;48.546;9.896;2022-10-28T04:29:40;5.47;;;3.45;;
1402;SDS011;696;48.546;9.896;2022-10-28T04:32:05;12.77;;;4.10;;
1402;SDS011;696;48.546;9.896;2022-10-28T04:34:31;11.18;;;4.57;;
1402;SDS011;696;48.546;9.896;2022-10-28T04:36:56;5.75;;;4.10;;
1402;SDS011;696;48.546;9.896;2022-10-28T04:39:21;6.00;;;3.80;;
1402;SDS011;696;48.546;9.896;2022-10-28T04:41:47;5.53;;;3.53;;
1402;SDS011;696;48.546;9.896;2022-10-28T04:44:12;7.50;;;3.75;;
1402;SDS011;696;48.546;9.896;2022-10-28T04:46:37;14.50;;;4.55;;
1402;SDS011;696;48.546;9.896;2022-10-28T04:49:03;11.65;;;4.75;;
1402;SDS011;696;48.546;9.896;2022-10-28T04:51:28;9.23;;;4.72;;
1402;SDS011;696;48.546;9.896;2022-10-28T04:53:54;9.48;;;4.97;;
1402;SDS011;696;48.546;9.896;2022-10-28T04:56:19;21.05;;;7.07;;
1402;SDS011;696;48.546;9.896;2022-10-28T04:58:45;17.30;;;7.20;;
1402;SDS011;696;48.546;9.896;2022-10-28T05:01:11;14.20;;;6.63;;
1402;SDS011;696;48.546;9.896;2022-10-28T05:03:36;10.52;;;5.13;;
1402;SDS011;696;48.546;9.896;2022-10-28T05:06:01;9.68;;;5.00;;
1402;SDS011;696;48.546;9.896;2022-10-28T05:08:27;6.47;;;5.00;;
1402;SDS011;696;48.546;9.896;2022-10-28T05:10:52;7.95;;;5.28;;
1402;SDS011;696;48.546;9.896;2022-10-28T05:13:18;12.18;;;7.60;;
1402;SDS011;696;48.546;9.896;2022-10-28T05:15:43;14.43;;;8.25;;
1402;SDS011;696;48.546;9.896;2022-10-28T05:18:09;10.75;;;7.25;;
1402;SDS011;696;48.546;9.896;2022-10-28T05:20:34;16.05;;;7.45;;
1402;SDS011;696;48.546;9.896;2022-10-28T05:23:00;7.95;;;5.80;;
1402;SDS011;696;48.546;9.896;2022-10-28T05:25:25;14.32;;;7.13;;
1402;SDS011;696;48.546;9.896;2022-10-28T05:27:51;14.07;;;7.75;;
1402;SDS011;696;48.546;9.896;2022-10-28T05:30:16;11.45;;;6.60;;
1402;SDS011;696;48.546;9.896;2022-10-28T05:32:42;7.85;;;5.85;;
1402;SDS011;696;48.546;9.896;2022-10-28T05:35:08;20.83;;;5.63;;
1402;SDS011;696;48.546;9.896;2022-10-28T05:37:34;16.60;;;6.50;;
1402;SDS011;696;48.546;9.896;2022-10-28T05:39:59;9.18;;;5.53;;
1402;SDS011;696;48.546;9.896;2022-10-28T05:42:24;8.13;;;3.90;;
1402;SDS011;696;48.546;9.896;2022-10-28T05:44:50;13.15;;;4.25;;
1402;SDS011;696;48.546;9.896;2022-10-28T05:47:15;6.18;;;3.95;;
1402;SDS011;696;48.546;9.896;2022-10-28T05:49:41;7.53;;;5.65;;
1402;SDS011;696;48.546;9.896;2022-10-28T05:52:06;9.30;;;6.03;;
1402;SDS011;696;48.546;9.896;2022-10-28T05:54:31;12.25;;;6.35;;
1402;SDS011;696;48.546;9.896;2022-10-28T05:56:57;12.05;;;6.80;;
1402;SDS011;696;48.546;9.896;2022-10-28T05:59:22;11.70;;;7.03;;
1402;SDS011;696;48.546;9.896;2022-10-28T06:01:47;11.93;;;7.03;;
1402;SDS011;696;48.546;9.896;2022-10-28T06:04:13;15.32;;;7.45;;
1402;SDS011;696;48.546;9.896;2022-10-28T06:06:38;11.75;;;7.15;;
1402;SDS011;696;48.546;9.896;2022-10-28T06:09:03;15.30;;;7.43;;
1402;SDS011;696;48.546;9.896;2022-10-28T06:11:29;10.10;;;7.10;;
1402;SDS011;696;48.546;9.896;2022-10-28T06:13:54;10.75;;;7.45;;
1402;SDS011;696;48.546;9.896;2022-10-28T06:16:19;17.92;;;8.38;;
1402;SDS011;696;48.546;9.896;2022-10-28T06:18:45;14.68;;;8.95;;
1402;SDS011;696;48.546;9.896;2022-10-28T06:21:10;14.43;;;7.85;;
1402;SDS011;696;48.546;9.896;2022-10-28T06:23:35;19.95;;;8.20;;
1402;SDS011;696;48.546;9.896;2022-10-28T06:26:01;13.38;;;8.18;;
1402;SDS011;696;48.546;9.896;2022-10-28T06:28:28;10.52;;;7.22;;
1402;SDS011;696;48.546;9.896;2022-10-28T06:30:53;14.70;;;7.38;;
1402;SDS011;696;48.546;9.896;2022-10-28T06:33:19;14.45;;;6.85;;
1402;SDS011;696;48.546;9.896;2022-10-28T06:35:44;10.07;;;6.20;;
1402;SDS011;696;48.546;9.896;2022-10-28T06:38:09;19.88;;;7.70;;
1402;SDS011;696;48.546;9.896;2022-10-28T06:40:35;11.02;;;7.20;;
1402;SDS011;696;48.546;9.896;2022-10-28T06:43:02;12.93;;;8.05;;
1402;SDS011;696;48.546;9.896;2022-10-28T06:45:29;15.20;;;7.55;;
1402;SDS011;696;48.546;9.896;2022-10-28T06:47:59;12.15;;;7.38;;
1402;SDS011;696;48.546;9.896;2022-10-28T06:50:27;14.32;;;7.63;;
1402;SDS011;696;48.546;9.896;2022-10-28T06:52:56;11.63;;;7.43;;
1402;SDS011;696;48.546;9.896;2022-10-28T06:55:22;11.35;;;7.68;;
1402;SDS011;696;48.546;9.896;2022-10-28T06:57:49;19.65;;;7.55;;
1402;SDS011;696;48.546;9.896;2022-10-28T07:00:14;15.52;;;7.95;;
1402;SDS011;696;48.546;9.896;2022-10-28T07:02:39;15.57;;;7.47;;
1402;SDS011;696;48.546;9.896;2022-10-28T07:05:05;11.98;;;6.53;;
1402;SDS011;696;48.546;9.896;2022-10-28T07:07:30;9.85;;;5.40;;
1402;SDS011;696;48.546;9.896;2022-10-28T07:09:56;13.15;;;5.65;;
1402;SDS011;696;48.546;9.896;2022-10-28T07:12:21;7.85;;;5.07;;
1402;SDS011;696;48.546;9.896;2022-10-28T07:14:46;8.23;;;5.13;;
1402;SDS011;696;48.546;9.896;2022-10-28T07:17:12;12.60;;;6.72;;
1402;SDS011;696;48.546;9.896;2022-10-28T07:19:37;16.88;;;7.05;;
1402;SDS011;696;48.546;9.896;2022-10-28T07:22:02;9.77;;;5.85;;
1402;SDS011;696;48.546;9.896;2022-10-28T07:24:28;14.55;;;6.35;;
1402;SDS011;696;48.546;9.896;2022-10-28T07:26:53;13.48;;;7.20;;
1402;SDS011;696;48.546;9.896;2022-10-28T07:29:19;9.73;;;6.38;;
1402;SDS011;696;48.546;9.896;2022-10-28T07:31:44;11.23;;;6.72;;
1402;SDS011;696;48.546;9.896;2022-10-28T07:34:09;7.90;;;5.57;;
1402;SDS011;696;48.546;9.896;2022-10-28T07:36:35;11.65;;;5.13;;
1402;SDS011;696;48.546;9.896;2022-10-28T07:39:00;9.73;;;5.40;;
1402;SDS011;696;48.546;9.896;2022-10-28T07:41:25;9.57;;;5.85;;
1402;SDS011;696;48.546;9.896;2022-10-28T07:43:51;15.68;;;7.07;;
1402;SDS011;696;48.546;9.896;2022-10-28T07:46:17;15.68;;;7.88;;
1402;SDS011;696;48.546;9.896;2022-10-28T07:48:43;12.13;;;7.90;;
1402;SDS011;696;48.546;9.896;2022-10-28T07:51:09;17.08;;;8.55;;
1402;SDS011;696;48.546;9.896;2022-10-28T07:53:35;24.55;;;8.10;;
1402;SDS011;696;48.546;9.896;2022-10-28T07:56:03;21.23;;;7.38;;
1402;SDS011;696;48.546;9.896;2022-10-28T07:58:30;14.85;;;6.80;;
1402;SDS011;696;48.546;9.896;2022-10-28T08:00:56;17.65;;;8.00;;
1402;SDS011;696;48.546;9.896;2022-10-28T08:03:26;14.90;;;7.55;;
1402;SDS011;696;48.546;9.896;2022-10-28T08:05:58;9.80;;;6.70;;
1402;SDS011;696;48.546;9.896;2022-10-28T08:08:27;15.98;;;7.68;;
1402;SDS011;696;48.546;9.896;2022-10-28T08:10:52;15.73;;;7.72;;
1402;SDS011;696;48.546;9.896;2022-10-28T08:13:18;24.45;;;14.77;;
1402;SDS011;696;48.546;9.896;2022-10-28T08:15:43;47.55;;;23.23;;
1402;SDS011;696;48.546;9.896;2022-10-28T08:18:08;67.32;;;37.97;;
1402;SDS011;696;48.546;9.896;2022-10-28T08:20:34;113.80;;;59.70;;
1402;SDS011;696;48.546;9.896;2022-10-28T08:22:59;169.40;;;78.25;;
1402;SDS011;696;48.546;9.896;2022-10-28T08:25:24;123.25;;;63.38;;
1402;SDS011;696;48.546;9.896;2022-10-28T08:27:49;106.28;;;49.15;;
1402;SDS011;696;48.546;9.896;2022-10-28T08:30:15;60.75;;;36.30;;
1402;SDS011;696;48.546;9.896;2022-10-28T08:32:40;42.42;;;21.67;;
1402;SDS011;696;48.546;9.896;2022-10-28T08:35:06;26.35;;;14.50;;
1402;SDS011;696;48.546;9.896;2022-10-28T08:37:31;24.58;;;12.02;;
1402;SDS011;696;48.546;9.896;2022-10-28T08:39:57;30.23;;;10.93;;
1402;SDS011;696;48.546;9.896;2022-10-28T08:42:27;19.88;;;9.77;;
1402;SDS011;696;48.546;9.896;2022-10-28T08:45:02;25.63;;;8.30;;
1402;SDS011;696;48.546;9.896;2022-10-28T08:47:59;13.82;;;7.53;;
1402;SDS011;696;48.546;9.896;2022-10-28T08:50:26;20.35;;;7.75;;
1402;SDS011;696;48.546;9.896;2022-10-28T08:55:38;14.65;;;7.60;;
1402;SDS011;696;48.546;9.896;2022-10-28T08:58:07;19.65;;;8.10;;
1402;SDS011;696;48.546;9.896;2022-10-28T09:00:36;21.33;;;8.57;;
1402;SDS011;696;48.546;9.896;2022-10-28T09:05:39;16.10;;;8.43;;
1402;SDS011;696;48.546;9.896;2022-10-28T09:08:05;16.35;;;8.00;;
1402;SDS011;696;48.546;9.896;2022-10-28T09:10:41;10.93;;;7.05;;
1402;SDS011;696;48.546;9.896;2022-10-28T09:13:25;15.02;;;7.10;;
1402;SDS011;696;48.546;9.896;2022-10-28T09:23:58;15.38;;;6.93;;
1402;SDS011;696;48.546;9.896;2022-10-28T09:31:45;15.40;;;6.70;;
1402;SDS011;696;48.546;9.896;2022-10-28T09:36:54;13.20;;;5.95;;
1402;SDS011;696;48.546;9.896;2022-10-28T09:39:41;11.60;;;5.85;;
1402;SDS011;696;48.546;9.896;2022-10-28T09:42:09;12.65;;;6.15;;
1402;SDS011;696;48.546;9.896;2022-10-28T09:44:42;18.95;;;7.75;;
1402;SDS011;696;48.546;9.896;2022-10-28T09:47:18;15.80;;;6.72;;
1402;SDS011;696;48.546;9.896;2022-10-28T09:49:46;23.25;;;8.05;;
1402;SDS011;696;48.546;9.896;2022-10-28T09:52:14;12.27;;;7.07;;
1402;SDS011;696;48.546;9.896;2022-10-28T09:54:44;11.48;;;6.43;;
1402;SDS011;696;48.546;9.896;2022-10-28T09:57:15;17.08;;;5.85;;
1402;SDS011;696;48.546;9.896;2022-10-28T09:59:40;18.00;;;5.60;;
1402;SDS011;696;48.546;9.896;2022-10-28T10:02:10;17.55;;;6.22;;
1402;SDS011;696;48.546;9.896;2022-10-28T10:04:47;13.57;;;6.57;;
1402;SDS011;696;48.546;9.896;2022-10-28T10:07:12;19.83;;;5.60;;
1402;SDS011;696;48.546;9.896;2022-10-28T10:09:48;16.45;;;5.55;;
1402;SDS011;696;48.546;9.896;2022-10-28T10:12:14;10.45;;;5.30;;
1402;SDS011;696;48.546;9.896;2022-10-28T10:14:41;22.15;;;10.05;;
1402;SDS011;696;48.546;9.896;2022-10-28T10:22:29;13.95;;;4.95;;
1402;SDS011;696;48.546;9.896;2022-10-28T10:24:59;11.90;;;5.07;;
1402;SDS011;696;48.546;9.896;2022-10-28T10:27:25;8.50;;;4.85;;
1402;SDS011;696;48.546;9.896;2022-10-28T10:29:51;21.27;;;4.78;;
1402;SDS011;696;48.546;9.896;2022-10-28T10:32:24;9.48;;;4.28;;
1402;SDS011;696;48.546;9.896;2022-10-28T10:37:28;11.80;;;4.70;;
1402;SDS011;696;48.546;9.896;2022-10-28T10:39:58;9.82;;;4.97;;
1402;SDS011;696;48.546;9.896;2022-10-28T10:42:24;11.02;;;4.82;;
1402;SDS011;696;48.546;9.896;2022-10-28T10:44:57;15.00;;;5.43;;
1402;SDS011;696;48.546;9.896;2022-10-28T10:47:25;17.02;;;5.55;;
1402;SDS011;696;48.546;9.896;2022-10-28T10:49:50;18.60;;;4.72;;
1402;SDS011;696;48.546;9.896;2022-10-28T10:52:17;8.18;;;4.43;;
1402;SDS011;696;48.546;9.896;2022-10-28T10:54:55;12.30;;;5.10;;
1402;SDS011;696;48.546;9.896;2022-10-28T10:57:23;12.40;;;4.22;;
1402;SDS011;696;48.546;9.896;2022-10-28T10:59:49;9.35;;;3.63;;
1402;SDS011;696;48.546;9.896;2022-10-28T11:02:21;16.20;;;3.80;;
1402;SDS011;696;48.546;9.896;2022-10-28T11:04:49;13.05;;;4.50;;
1402;SDS011;696;48.546;9.896;2022-10-28T11:07:16;19.17;;;5.15;;
1402;SDS011;696;48.546;9.896;2022-10-28T11:09:41;11.55;;;4.80;;
1402;SDS011;696;48.546;9.896;2022-10-28T11:12:23;10.55;;;4.40;;
1402;SDS011;696;48.546;9.896;2022-10-28T11:17:39;8.35;;;4.38;;
1402;SDS011;696;48.546;9.896;2022-10-28T11:20:20;7.38;;;3.38;;
1402;SDS011;696;48.546;9.896;2022-10-28T11:26:08;12.23;;;4.40;;
1402;SDS011;696;48.546;9.896;2022-10-28T11:39:47;20.85;;;4.13;;
1402;SDS011;696;48.546;9.896;2022-10-28T11:55:49;10.48;;;3.95;;
1402;SDS011;696;48.546;9.896;2022-10-28T12:03:33;15.13;;;3.58;;
1402;SDS011;696;48.546;9.896;2022-10-28T12:08:57;16.98;;;4.13;;
1402;SDS011;696;48.546;9.896;2022-10-28T12:16:51;9.65;;;3.08;;
1402;SDS011;696;48.546;9.896;2022-10-28T12:19:22;12.55;;;3.22;;
1402;SDS011;696;48.546;9.896;2022-10-28T12:21:58;5.75;;;2.63;;
1402;SDS011;696;48.546;9.896;2022-10-28T12:24:29;12.25;;;2.70;;
1402;SDS011;696;48.546;9.896;2022-10-28T12:26:59;10.88;;;2.70;;
1402;SDS011;696;48.546;9.896;2022-10-28T12:29:31;9.27;;;2.78;;
1402;SDS011;696;48.546;9.896;2022-10-28T12:32:10;9.70;;;2.85;;
1402;SDS011;696;48.546;9.896;2022-10-28T12:34:40;14.82;;;2.95;;
1402;SDS011;696;48.546;9.896;2022-10-28T12:37:14;10.40;;;2.92;;
1402;SDS011;696;48.546;9.896;2022-10-28T12:42:21;11.40;;;2.75;;
1402;SDS011;696;48.546;9.896;2022-10-28T12:44:49;15.73;;;2.63;;
1402;SDS011;696;48.546;9.896;2022-10-28T12:47:59;18.55;;;2.83;;
1402;SDS011;696;48.546;9.896;2022-10-28T12:50:19;9.80;;;2.85;;
1402;SDS011;696;48.546;9.896;2022-10-28T13:00:50;13.00;;;3.13;;
1402;SDS011;696;48.546;9.896;2022-10-28T13:03:18;12.70;;;2.97;;
1402;SDS011;696;48.546;9.896;2022-10-28T13:27:28;9.63;;;3.00;;
1402;SDS011;696;48.546;9.896;2022-10-28T13:29:55;11.45;;;2.38;;
1402;SDS011;696;48.546;9.896;2022-10-28T13:32:25;12.68;;;2.88;;
1402;SDS011;696;48.546;9.896;2022-10-28T13:35:08;9.90;;;3.00;;
1402;SDS011;696;48.546;9.896;2022-10-28T13:37:36;11.30;;;2.97;;
1402;SDS011;696;48.546;9.896;2022-10-28T13:40:03;10.52;;;2.50;;
1402;SDS011;696;48.546;9.896;2022-10-28T13:42:30;18.45;;;3.17;;
1402;SDS011;696;48.546;9.896;2022-10-28T13:45:54;5.20;;;2.30;;
1402;SDS011;696;48.546;9.896;2022-10-28T13:56:31;7.18;;;2.10;;
1402;SDS011;696;48.546;9.896;2022-10-28T13:58:59;7.35;;;2.38;;
1402;SDS011;696;48.546;9.896;2022-10-28T14:06:47;6.47;;;2.85;;
1402;SDS011;696;48.546;9.896;2022-10-28T14:09:19;5.65;;;2.15;;
1402;SDS011;696;48.546;9.896;2022-10-28T14:11:46;14.00;;;3.58;;
1402;SDS011;696;48.546;9.896;2022-10-28T14:14:27;12.93;;;3.33;;
1402;SDS011;696;48.546;9.896;2022-10-28T14:16:53;14.20;;;2.97;;
1402;SDS011;696;48.546;9.896;2022-10-28T14:19:18;12.05;;;2.88;;
1402;SDS011;696;48.546;9.896;2022-10-28T14:29:30;13.05;;;3.78;;
1402;SDS011;696;48.546;9.896;2022-10-28T14:51:01;16.20;;;6.05;;
1402;SDS011;696;48.546;9.896;2022-10-28T14:53:28;14.68;;;4.90;;
1402;SDS011;696;48.546;9.896;2022-10-28T14:58:33;25.55;;;4.40;;
1402;SDS011;696;48.546;9.896;2022-10-28T15:03:42;8.68;;;3.47;;
1402;SDS011;696;48.546;9.896;2022-10-28T15:06:27;14.98;;;4.05;;
1402;SDS011;696;48.546;9.896;2022-10-28T15:08:55;12.02;;;3.42;;
1402;SDS011;696;48.546;9.896;2022-10-28T15:11:21;11.13;;;4.03;;
1402;SDS011;696;48.546;9.896;2022-10-28T15:13:50;13.15;;;3.40;;
1402;SDS011;696;48.546;9.896;2022-10-28T15:16:23;9.45;;;3.75;;
1402;SDS011;696;48.546;9.896;2022-10-28T15:18:49;14.93;;;3.95;;
1402;SDS011;696;48.546;9.896;2022-10-28T15:21:18;19.42;;;3.67;;
1402;SDS011;696;48.546;9.896;2022-10-28T15:23:44;11.82;;;4.03;;
1402;SDS011;696;48.546;9.896;2022-10-28T15:26:10;6.90;;;3.75;;
1402;SDS011;696;48.546;9.896;2022-10-28T15:28:37;14.20;;;3.55;;
1402;SDS011;696;48.546;9.896;2022-10-28T15:31:03;11.98;;;3.90;;
1402;SDS011;696;48.546;9.896;2022-10-28T15:33:29;14.77;;;4.15;;
1402;SDS011;696;48.546;9.896;2022-10-28T15:36:15;14.15;;;3.38;;
1402;SDS011;696;48.546;9.896;2022-10-28T15:38:42;13.27;;;3.13;;
1402;SDS011;696;48.546;9.896;2022-10-28T15:43:53;12.00;;;4.05;;
1402;SDS011;696;48.546;9.896;2022-10-28T15:46:21;13.75;;;4.00;;
1402;SDS011;696;48.546;9.896;2022-10-28T15:48:51;15.57;;;4.38;;
1402;SDS011;696;48.546;9.896;2022-10-28T15:51:17;10.05;;;3.75;;
1402;SDS011;696;48.546;9.896;2022-10-28T15:53:44;20.25;;;4.72;;
1402;SDS011;696;48.546;9.896;2022-10-28T15:58:48;8.55;;;3.83;;
1402;SDS011;696;48.546;9.896;2022-10-28T16:04:39;8.88;;;3.78;;
1402;SDS011;696;48.546;9.896;2022-10-28T16:06:53;14.00;;;4.57;;
1402;SDS011;696;48.546;9.896;2022-10-28T16:11:56;10.52;;;4.47;;
1402;SDS011;696;48.546;9.896;2022-10-28T16:14:29;19.98;;;5.18;;
1402;SDS011;696;48.546;9.896;2022-10-28T16:19:31;9.80;;;4.40;;
1402;SDS011;696;48.546;9.896;2022-10-28T16:22:18;16.65;;;4.50;;
1402;SDS011;696;48.546;9.896;2022-10-28T16:24:45;10.20;;;4.22;;
1402;SDS011;696;48.546;9.896;2022-10-28T16:27:21;13.80;;;4.35;;
1402;SDS011;696;48.546;9.896;2022-10-28T16:29:46;13.95;;;4.18;;
1402;SDS011;696;48.546;9.896;2022-10-28T16:32:13;24.00;;;4.40;;
1402;SDS011;696;48.546;9.896;2022-10-28T16:34:39;19.67;;;4.78;;
1402;SDS011;696;48.546;9.896;2022-10-28T16:37:12;18.98;;;5.00;;
1402;SDS011;696;48.546;9.896;2022-10-28T16:39:43;11.10;;;4.68;;
1402;SDS011;696;48.546;9.896;2022-10-28T16:42:08;8.30;;;4.53;;
1402;SDS011;696;48.546;9.896;2022-10-28T16:44:34;17.08;;;5.20;;
1402;SDS011;696;48.546;9.896;2022-10-28T16:47:00;14.93;;;4.20;;
1402;SDS011;696;48.546;9.896;2022-10-28T16:49:25;11.98;;;4.07;;
1402;SDS011;696;48.546;9.896;2022-10-28T16:51:51;10.60;;;4.50;;
1402;SDS011;696;48.546;9.896;2022-10-28T16:54:16;17.90;;;4.47;;
1402;SDS011;696;48.546;9.896;2022-10-28T16:56:41;15.80;;;4.47;;
1402;SDS011;696;48.546;9.896;2022-10-28T16:59:07;17.45;;;4.70;;
1402;SDS011;696;48.546;9.896;2022-10-28T17:01:32;14.88;;;5.32;;
1402;SDS011;696;48.546;9.896;2022-10-28T17:03:58;11.85;;;5.85;;
1402;SDS011;696;48.546;9.896;2022-10-28T17:06:24;23.83;;;6.20;;
1402;SDS011;696;48.546;9.896;2022-10-28T17:08:49;13.30;;;5.78;;
1402;SDS011;696;48.546;9.896;2022-10-28T17:11:15;12.20;;;5.75;;
1402;SDS011;696;48.546;9.896;2022-10-28T17:13:40;22.02;;;5.57;;
1402;SDS011;696;48.546;9.896;2022-10-28T17:16:06;12.05;;;3.80;;
1402;SDS011;696;48.546;9.896;2022-10-28T17:18:31;11.93;;;4.30;;
1402;SDS011;696;48.546;9.896;2022-10-28T17:20:58;13.38;;;4.30;;
1402;SDS011;696;48.546;9.896;2022-10-28T17:23:24;12.25;;;3.72;;
1402;SDS011;696;48.546;9.896;2022-10-28T17:26:00;12.13;;;4.20;;
1402;SDS011;696;48.546;9.896;2022-10-28T17:28:26;10.52;;;4.13;;
1402;SDS011;696;48.546;9.896;2022-10-28T17:30:52;7.30;;;3.85;;
1402;SDS011;696;48.546;9.896;2022-10-28T17:33:19;8.02;;;4.35;;
1402;SDS011;696;48.546;9.896;2022-10-28T17:35:45;13.70;;;4.55;;
1402;SDS011;696;48.546;9.896;2022-10-28T17:38:10;8.48;;;4.32;;
1402;SDS011;696;48.546;9.896;2022-10-28T17:40:35;8.80;;;4.05;;
1402;SDS011;696;48.546;9.896;2022-10-28T17:43:01;11.48;;;4.13;;
1402;SDS011;696;48.546;9.896;2022-10-28T17:45:26;25.27;;;4.38;;
1402;SDS011;696;48.546;9.896;2022-10-28T17:47:51;15.05;;;5.00;;
1402;SDS011;696;48.546;9.896;2022-10-28T17:50:17;11.68;;;4.32;;
1402;SDS011;696;48.546;9.896;2022-10-28T17:52:42;12.57;;;4.55;;
1402;SDS011;696;48.546;9.896;2022-10-28T17:55:08;9.82;;;4.60;;
1402;SDS011;696;48.546;9.896;2022-10-28T17:57:33;10.23;;;4.32;;
1402;SDS011;696;48.546;9.896;2022-10-28T17:59:59;10.60;;;3.70;;
1402;SDS011;696;48.546;9.896;2022-10-28T18:02:24;8.25;;;3.50;;
1402;SDS011;696;48.546;9.896;2022-10-28T18:04:50;13.70;;;4.47;;
1402;SDS011;696;48.546;9.896;2022-10-28T18:07:15;11.85;;;4.18;;
1402;SDS011;696;48.546;9.896;2022-10-28T18:09:40;28.10;;;4.20;;
1402;SDS011;696;48.546;9.896;2022-10-28T18:12:06;10.10;;;3.78;;
1402;SDS011;696;48.546;9.896;2022-10-28T18:14:32;8.98;;;4.22;;
1402;SDS011;696;48.546;9.896;2022-10-28T18:16:57;14.20;;;3.88;;
1402;SDS011;696;48.546;9.896;2022-10-28T18:19:23;14.60;;;3.45;;
1402;SDS011;696;48.546;9.896;2022-10-28T18:21:48;18.45;;;5.00;;
1402;SDS011;696;48.546;9.896;2022-10-28T18:24:14;11.95;;;4.22;;
1402;SDS011;696;48.546;9.896;2022-10-28T18:26:39;11.27;;;3.58;;
1402;SDS011;696;48.546;9.896;2022-10-28T18:29:05;14.55;;;3.63;;
1402;SDS011;696;48.546;9.896;2022-10-28T18:31:33;9.07;;;3.47;;
1402;SDS011;696;48.546;9.896;2022-10-28T18:33:59;5.43;;;3.65;;
1402;SDS011;696;48.546;9.896;2022-10-28T18:36:25;14.55;;;4.15;;
1402;SDS011;696;48.546;9.896;2022-10-28T18:38:53;13.93;;;3.92;;
1402;SDS011;696;48.546;9.896;2022-10-28T18:41:22;12.98;;;3.78;;
1402;SDS011;696;48.546;9.896;2022-10-28T18:43:52;10.82;;;4.15;;
1402;SDS011;696;48.546;9.896;2022-10-28T18:46:18;9.80;;;3.40;;
1402;SDS011;696;48.546;9.896;2022-10-28T18:48:44;15.07;;;3.70;;
1402;SDS011;696;48.546;9.896;2022-10-28T18:51:10;10.65;;;3.65;;
1402;SDS011;696;48.546;9.896;2022-10-28T18:53:37;20.60;;;3.60;;